Latest Weather Observations for Bundaberg

IDQ60801

Issued at 1:32 pm EST Monday 20 February 2017 (issued every 30 minutes, with the page automatically refreshed every 10 minutes)

About weather observations | Map of weather stations | Latest weather observations for QLD | Other Formats
Station Details ID: 039128 Name: BUNDABERG AERO Lat: -24.91 Lon: 152.32 Height: 30.82 m
Data from the previous 72 hours. | See also: Recent months at Bundaberg
Date/Time
EST
Temp
°C
App
Temp
°C
Dew
Point
°C
Rel
Hum
%
Delta-T
°C
Wind Press
QNH
hPa
Press
MSL
hPa
Rain since
9am
mm
Dir  Spd
km/h
Gust
km/h
Spd
kts
Gust
kts
20/01:00pm 32.2 32.7 16.5 39 9.9 ESE 9 17 5 9 1009.2 1009.0 0.0
20/12:30pm 32.3 31.9 16.2 38 10.1 SW 13 19 7 10 1009.6 1009.4 0.0
20/12:00pm 31.7 31.7 17.2 42 9.2 S 13 20 7 11 1009.9 1009.7 0.0
20/11:30am 32.7 33.5 18.1 42 9.4 WSW 11 20 6 11 1010.2 1010.0 0.0
20/11:00am 32.6 32.7 18.4 43 9.2 SSW 15 24 8 13 1010.6 1010.4 0.0
20/10:30am 30.1 30.0 16.9 45 8.3 SSW 13 22 7 12 1010.9 1010.7 0.0
20/10:00am 29.5 30.0 18.3 51 7.2 S 13 24 7 13 1011.1 1010.9 0.0
20/09:30am 29.2 29.8 18.6 52 6.8 SSW 13 20 7 11 1011.3 1011.1 0.0
20/09:00am 28.0 29.5 19.0 58 5.8 SW 9 15 5 8 1011.5 1011.3 0.0
20/08:30am 27.9 29.8 19.7 61 5.3 S 9 15 5 8 1011.6 1011.4 0.0
20/08:00am 26.0 27.1 19.6 68 4.1 SSW 13 17 7 9 1011.5 1011.3 0.0
20/07:30am 25.2 26.3 19.6 71 3.6 SSW 13 20 7 11 1011.2 1011.0 0.0
20/07:00am 24.7 26.3 20.0 75 3.0 SW 11 17 6 9 1011.0 1010.8 0.0
20/06:30am 24.0 26.2 20.5 81 2.3 WSW 9 11 5 6 1010.4 1010.2 0.0
20/06:00am 23.3 25.9 20.4 84 1.9 WSW 7 9 4 5 1009.7 1009.5 0.0
20/05:30am 23.4 26.0 20.5 84 1.9 WSW 7 9 4 5 1009.2 1009.0 0.0
20/05:00am 23.9 28.1 21.0 84 1.9 CALM 0 0 0 0 1008.7 1008.5 0.0
20/04:30am 23.9 28.1 21.0 84 1.9 CALM 0 0 0 0 1008.5 1008.3 0.0
20/04:00am 24.1 28.3 21.0 83 2.0 CALM 0 0 0 0 1008.3 1008.1 0.0
20/03:30am 24.3 28.1 21.0 82 2.2 SSW 2 6 1 3 1008.2 1008.0 0.0
20/03:00am 24.3 26.9 21.2 83 2.0 WSW 9 13 5 7 1008.2 1008.0 0.0
20/02:30am 24.3 27.0 21.4 84 1.9 W 9 13 5 7 1008.1 1007.9 0.0
20/02:00am 24.7 26.9 21.2 81 2.3 NW 11 15 6 8 1008.7 1008.5 0.0
20/01:30am 24.9 27.4 21.0 79 2.6 WSW 9 11 5 6 1008.8 1008.6 0.0
20/01:00am 25.1 26.8 21.0 78 2.7 WSW 13 17 7 9 1009.0 1008.8 0.0
20/12:30am 25.2 27.3 20.9 77 2.8 SW 11 17 6 9 1009.1 1008.9 0.0
20/12:00am 25.2 28.0 20.9 77 2.8 W 7 9 4 5 1009.2 1009.0 0.0
 
Date/Time
EST
Temp
°C
App
Temp
°C
Dew
Point
°C
Rel
Hum
%
Delta-T
°C
Wind Press
QNH
hPa
Press
MSL
hPa
Rain since
9am
mm
Dir  Spd
km/h
Gust
km/h
Spd
kts
Gust
kts
19/11:30pm 25.3 27.9 20.5 75 3.1 WSW 7 9 4 5 1009.4 1009.2 0.0
19/11:00pm 25.9 28.5 20.5 72 3.5 WNW 7 9 4 5 1009.2 1009.0 0.0
19/10:30pm 26.3 28.5 20.4 70 3.9 WNW 9 13 5 7 1009.5 1009.3 0.0
19/10:00pm 26.6 28.0 20.4 69 4.1 WNW 13 17 7 9 1009.2 1009.0 0.0
19/09:30pm 27.0 28.4 20.3 66 4.4 NNW 13 17 7 9 1008.8 1008.6 0.0
19/09:00pm 27.3 28.2 20.1 64 4.7 NNW 15 20 8 11 1008.6 1008.4 0.0
19/08:30pm 27.7 28.2 20.8 66 4.6 N 19 26 10 14 1008.8 1008.6 0.0
19/08:00pm 27.7 28.3 21.0 67 4.5 N 19 22 10 12 1008.7 1008.5 0.0
19/07:30pm 27.8 28.6 20.6 65 4.8 N 17 20 9 11 1008.3 1008.1 0.0
19/07:00pm 27.7 28.4 20.5 65 4.8 NNW 17 22 9 12 1007.9 1007.7 0.0
19/06:30pm 27.9 27.3 20.5 64 4.9 N 24 30 13 16 1007.3 1007.1 0.0
19/06:00pm 28.2 27.4 20.0 61 5.4 N 24 32 13 17 1006.8 1006.6 0.0
19/05:30pm 28.6 27.3 19.8 59 5.8 N 26 33 14 18 1006.2 1006.0 0.0
19/05:00pm 29.1 27.8 19.1 54 6.5 N 24 32 13 17 1005.8 1005.6 0.0
19/04:30pm 30.5 28.3 18.6 49 7.7 N 28 35 15 19 1005.5 1005.3 0.0
19/04:00pm 32.1 30.7 19.7 48 8.2 NNE 26 32 14 17 1005.4 1005.2 0.0
19/03:30pm 31.0 29.6 18.7 48 8.0 N 24 32 13 17 1005.9 1005.7 0.0
19/03:00pm 30.7 29.3 18.8 49 7.7 NNE 24 30 13 16 1006.3 1006.1 0.0
19/02:30pm 31.3 29.7 19.3 49 7.9 N 26 37 14 20 1006.6 1006.4 0.0
19/02:00pm 32.0 30.8 19.3 47 8.3 NNE 24 33 13 18 1006.9 1006.7 0.0
19/01:30pm 32.3 32.0 19.5 46 8.4 N 20 32 11 17 1007.3 1007.1 0.0
19/01:00pm 32.3 31.6 19.5 46 8.4 N 22 32 12 17 1007.7 1007.5 0.0
19/12:30pm 31.8 31.4 20.1 50 7.8 N 22 32 12 17 1008.0 1007.8 0.0
19/12:00pm 31.4 31.2 19.7 49 7.7 N 20 32 11 17 1008.3 1008.1 0.0
19/11:30am 30.3 30.0 19.6 52 7.0 NNW 20 32 11 17 1008.6 1008.4 0.0
19/11:00am 30.1 29.7 20.9 57 6.1 NNW 24 33 13 18 1008.7 1008.5 0.0
19/10:30am 31.0 31.1 21.2 56 6.6 NNE 22 28 12 15 1008.9 1008.7 0.0
19/10:00am 30.6 31.0 21.7 59 6.0 N 22 30 12 16 1009.1 1008.9 0.0
19/09:30am 29.0 29.5 21.2 62 5.2 NNE 20 32 11 17 1009.1 1008.9 0.0
19/09:00am 28.4 28.8 20.7 63 5.1 NNE 19 24 10 13 1009.2 1009.0 0.0
19/08:30am 29.0 31.0 21.5 64 5.0 N 13 20 7 11 1009.4 1009.2 0.0
19/08:00am 27.6 29.3 20.2 64 4.9 NNW 11 17 6 9 1009.7 1009.5 0.0
19/07:30am 25.6 29.0 20.2 72 3.5 S 2 7 1 4 1009.8 1009.6 0.0
19/07:00am 23.6 26.0 20.1 81 2.3 SE 7 9 4 5 1009.5 1009.3 0.0
19/06:30am 23.4 27.3 20.3 83 2.0 CALM 0 4 0 2 1009.5 1009.3 0.0
19/06:00am 22.1 25.0 19.8 87 1.5 SSW 4 7 2 4 1009.5 1009.3 0.0
19/05:30am 22.0 25.4 19.4 85 1.7 CALM 0 0 0 0 1009.7 1009.5 0.0
19/05:00am 22.3 24.6 19.8 86 1.6 SSW 7 7 4 4 1009.5 1009.3 0.0
19/04:30am 22.9 25.4 19.9 83 1.9 W 6 9 3 5 1009.6 1009.4 0.0
19/04:00am 23.4 25.0 20.0 81 2.2 NNW 11 13 6 7 1009.4 1009.2 0.0
19/03:30am 23.9 25.7 20.4 81 2.3 NNW 11 13 6 7 1009.4 1009.2 0.0
19/03:00am 23.4 25.0 20.0 81 2.2 NNW 11 15 6 8 1009.4 1009.2 0.0
19/02:30am 23.0 24.7 20.1 84 1.9 WNW 11 13 6 7 1009.7 1009.5 0.0
19/02:00am 22.7 24.7 19.9 84 1.8 W 9 13 5 7 1009.9 1009.7 0.0
19/01:30am 22.4 23.8 19.6 84 1.8 W 11 15 6 8 1010.0 1009.8 0.0
19/01:00am 23.1 25.3 19.7 81 2.2 NW 7 9 4 5 1009.8 1009.6 0.0
19/12:30am 24.0 25.9 19.7 77 2.8 NNW 9 13 5 7 1009.9 1009.7 0.0
19/12:00am 25.1 26.7 19.9 73 3.4 N 11 17 6 9 1010.0 1009.8 0.0
 
Date/Time
EST
Temp
°C
App
Temp
°C
Dew
Point
°C
Rel
Hum
%
Delta-T
°C
Wind Press
QNH
hPa
Press
MSL
hPa
Rain since
9am
mm
Dir  Spd
km/h
Gust
km/h
Spd
kts
Gust
kts
18/11:30pm 25.0 26.5 19.8 73 3.4 NNW 11 15 6 8 1010.2 1010.0 0.0
18/11:00pm 25.5 26.7 19.9 71 3.6 N 13 17 7 9 1010.1 1009.9 0.0
18/10:30pm 25.5 26.3 19.9 71 3.6 N 15 20 8 11 1010.0 1009.8 0.0
18/10:00pm 25.6 26.8 19.9 70 3.7 N 13 20 7 11 1010.0 1009.8 0.0
18/09:30pm 25.6 25.9 19.7 70 3.8 N 17 20 9 11 1010.0 1009.8 0.0
18/09:00pm 25.6 26.3 19.7 70 3.8 N 15 19 8 10 1009.6 1009.4 0.0
18/08:30pm 25.7 26.4 19.6 69 3.9 N 15 19 8 10 1009.5 1009.3 0.0
18/08:00pm 25.8 25.8 19.0 66 4.4 N 17 24 9 13 1009.1 1008.9 0.0
18/07:30pm 26.0 26.0 18.9 65 4.5 N 17 24 9 13 1009.1 1008.9 0.0
18/07:00pm 26.4 26.0 18.8 63 4.9 N 19 24 10 13 1009.0 1008.8 0.0
18/06:30pm 26.8 25.6 18.4 60 5.4 N 22 30 12 16 1008.6 1008.4 0.0
18/06:00pm 27.3 25.5 17.8 56 6.0 NNE 24 30 13 16 1008.5 1008.3 0.0
18/05:30pm 28.3 26.2 17.2 51 7.0 NNE 24 33 13 18 1008.5 1008.3 0.0
18/05:00pm 28.9 25.4 15.4 44 8.3 NNE 28 35 15 19 1008.5 1008.3 0.0
18/04:30pm 29.7 26.6 16.5 45 8.3 NNE 28 33 15 18 1008.6 1008.4 0.0
18/04:00pm 30.2 27.6 15.9 42 8.9 NNE 24 33 13 18 1008.8 1008.6 0.0
18/03:30pm 30.6 27.9 14.7 38 9.7 NNE 22 30 12 16 1008.9 1008.7 0.0
18/03:00pm 30.9 28.6 17.6 45 8.5 NNE 26 35 14 19 1009.3 1009.1 0.0
18/02:30pm 30.6 28.3 16.6 43 8.8 NNE 24 35 13 19 1009.5 1009.3 0.0
18/02:00pm 30.3 28.4 17.7 46 8.0 NNE 24 48 13 26 1009.8 1009.6 0.0
18/01:30pm 31.7 30.9 17.9 43 8.9 NNE 19 35 10 19 1010.1 1009.9 0.0
18/01:00pm 31.0 29.9 17.7 45 8.5 N 20 32 11 17 1010.8 1010.6 0.0
18/12:30pm 30.6 29.5 17.3 45 8.4 N 19 28 10 15 1011.1 1010.9 0.0
18/12:00pm 31.0 30.2 18.0 45 8.4 N 19 28 10 15 1011.4 1011.2 0.0
18/11:30am 30.3 29.7 18.4 49 7.7 NNE 19 26 10 14 1011.5 1011.3 0.0
18/11:00am 30.2 29.8 18.9 50 7.3 N 19 28 10 15 1011.8 1011.6 0.0
18/10:30am 29.6 29.6 18.1 50 7.4 NE 15 24 8 13 1012.0 1011.8 0.0
18/10:00am 29.2 29.8 18.6 52 6.8 N 13 22 7 12 1012.6 1012.4 0.0
18/09:30am 27.8 28.9 17.9 54 6.3 N 9 17 5 9 1013.0 1012.8 0.0
18/09:00am 27.5 28.7 18.2 57 5.9 NNE 9 17 5 9 1013.4 1013.2 0.0
18/08:30am 27.1 29.0 18.9 61 5.3 S 7 17 4 9 1013.6 1013.4 0.0
18/08:00am 25.8 27.4 19.2 67 4.2 S 9 13 5 7 1014.0 1013.8 0.0
18/07:30am 23.6 24.2 18.7 74 3.1 S 13 15 7 8 1013.8 1013.6 0.0
18/07:00am 22.4 23.1 18.8 80 2.3 S 13 17 7 9 1013.7 1013.5 0.0
18/06:30am 20.7 21.3 18.5 87 1.4 S 13 15 7 8 1013.4 1013.2 0.0
18/06:00am 20.3 21.1 18.2 88 1.3 S 11 13 6 7 1013.2 1013.0 0.0
18/05:30am 20.4 22.2 18.2 87 1.4 SSE 6 9 3 5 1012.6 1012.4 0.0
18/05:00am 20.7 22.5 18.3 86 1.5 SSE 6 11 3 6 1012.5 1012.3 0.0
18/04:30am 20.7 22.0 18.5 87 1.4 S 9 15 5 8 1012.4 1012.2 0.0
18/04:00am 20.8 22.5 18.6 87 1.4 S 7 9 4 5 1011.9 1011.7 0.0
18/03:30am 20.8 23.9 18.6 87 1.4 CALM 0 0 0 0 1011.8 1011.6 0.0
18/03:00am 21.1 24.1 18.5 85 1.6 CALM 0 0 0 0 1011.9 1011.7 0.0
18/02:30am 21.2 24.3 18.6 85 1.6 CALM 0 2 0 1 1012.2 1012.0 0.0
18/02:00am 21.3 24.4 18.7 85 1.6 CALM 0 0 0 0 1012.4 1012.2 0.0
18/01:30am 21.6 24.7 18.6 83 1.9 CALM 0 0 0 0 1012.6 1012.4 0.0
18/01:00am 22.1 25.1 18.5 80 2.3 CALM 0 0 0 0 1013.0 1012.8 0.0
18/12:30am 22.2 25.3 18.6 80 2.3 CALM 0 0 0 0 1013.4 1013.2 0.0
18/12:00am 22.3 25.2 18.3 78 2.5 CALM 0 0 0 0 1013.6 1013.4 0.0
 
Date/Time
EST
Temp
°C
App
Temp
°C
Dew
Point
°C
Rel
Hum
%
Delta-T
°C
Wind Press
QNH
hPa
Press
MSL
hPa
Rain since
9am
mm
Dir  Spd
km/h
Gust
km/h
Spd
kts
Gust
kts
17/11:30pm 23.2 25.5 18.5 75 3.0 ENE 4 6 2 3 1014.0 1013.8 0.0
17/11:00pm 24.0 26.7 18.6 72 3.4 ENE 2 6 1 3 1014.1 1013.9 0.0
17/10:30pm 24.1 25.9 18.7 72 3.4 NE 7 9 4 5 1014.0 1013.8 0.0
17/10:00pm 24.2 25.9 18.4 70 3.7 ENE 7 9 4 5 1013.9 1013.7 0.0
17/09:30pm 24.6 25.8 18.3 68 4.0 NE 9 11 5 6 1013.8 1013.6 0.0
17/09:00pm 25.1 26.4 18.5 67 4.2 NE 9 11 5 6 1013.8 1013.6 0.0
17/08:30pm 25.4 25.9 18.3 65 4.5 NE 13 17 7 9 1013.5 1013.3 0.0
17/08:00pm 25.6 25.7 18.3 64 4.6 NE 15 19 8 10 1013.0 1012.8 0.0
17/07:30pm 25.8 26.0 18.5 64 4.6 NE 15 17 8 9 1012.8 1012.6 0.0
17/07:00pm 26.1 25.7 18.8 64 4.7 NE 19 22 10 12 1012.7 1012.5 0.0
17/06:30pm 26.4 25.8 18.8 63 4.9 NE 20 26 11 14 1012.5 1012.3 0.0
17/06:00pm 27.1 26.4 18.7 60 5.4 NE 20 28 11 15 1012.4 1012.2 0.0
17/05:30pm 28.0 27.2 18.4 56 6.1 NE 20 26 11 14 1012.2 1012.0 0.0
17/05:00pm 29.3 28.5 18.4 51 7.0 NE 20 28 11 15 1012.2 1012.0 0.0
17/04:30pm 29.4 28.2 17.6 49 7.5 NE 20 28 11 15 1012.1 1011.9 0.0
17/04:00pm 29.9 27.9 17.4 47 7.9 NE 24 33 13 18 1012.0 1011.8 0.0
17/03:30pm 30.6 29.0 16.6 43 8.8 NE 20 28 11 15 1012.1 1011.9 0.0
17/03:00pm 30.5 28.4 16.1 41 9.0 NE 22 33 12 18 1012.3 1012.1 0.0
17/02:30pm 31.2 29.3 16.8 42 9.1 ENE 22 32 12 17 1012.4 1012.2 0.0
17/02:00pm 31.8 30.5 16.9 40 9.4 ENE 19 30 10 16 1012.7 1012.5 0.0

Other Formats:

Comma delimited format used in spreadsheet applications
http://www.bom.gov.au/fwo/IDQ60801/IDQ60801.94387.axf

JavaScript Object Notation format (JSON) in row-major order
http://www.bom.gov.au/fwo/IDQ60801/IDQ60801.94387.json